createdAt,value
2023-03-28T00:02:25.980Z,100
2023-03-28T00:05:13.867Z,100
2023-03-28T00:08:02.721Z,100
2023-03-28T00:10:50.404Z,100
2023-03-28T00:13:37.912Z,100
2023-03-28T00:16:25.472Z,100
2023-03-28T00:19:16.767Z,100
2023-03-28T00:22:05.689Z,100
2023-03-28T00:24:53.227Z,100
2023-03-28T00:27:43.264Z,100
2023-03-28T00:30:31.087Z,100
2023-03-28T00:33:18.838Z,100
2023-03-28T00:36:06.423Z,100
2023-03-28T00:38:55.052Z,100
2023-03-28T00:41:42.954Z,100
2023-03-28T00:44:31.006Z,100
2023-03-28T00:47:30.336Z,100
2023-03-28T00:50:25.255Z,100
2023-03-28T00:53:15.766Z,100
2023-03-28T00:56:07.028Z,100
2023-03-28T00:59:00.155Z,100
2023-03-28T01:01:52.876Z,100
2023-03-28T01:04:40.839Z,100
2023-03-28T01:07:36.779Z,100
2023-03-28T01:10:29.965Z,100
2023-03-28T01:13:19.098Z,100
2023-03-28T01:16:12.684Z,100
2023-03-28T01:19:04.659Z,100
2023-03-28T01:21:56.999Z,100
2023-03-28T01:25:10.844Z,100
2023-03-28T01:28:34.117Z,100
2023-03-28T01:31:49.015Z,100
2023-03-28T01:35:03.663Z,100
2023-03-28T01:38:11.140Z,100
2023-03-28T01:41:03.271Z,100
2023-03-28T01:43:56.762Z,100
2023-03-28T01:46:55.138Z,100
2023-03-28T01:49:50.429Z,100
2023-03-28T01:52:47.952Z,100
2023-03-28T01:55:42.953Z,100
2023-03-28T01:58:38.554Z,100
2023-03-28T02:01:32.715Z,100
2023-03-28T02:04:29.862Z,100
2023-03-28T02:07:19.934Z,100
2023-03-28T02:10:09.409Z,100
2023-03-28T02:13:00.657Z,100
2023-03-28T02:15:52.839Z,100
2023-03-28T02:18:44.429Z,100
2023-03-28T02:21:36.287Z,100
2023-03-28T02:24:29.544Z,100
2023-03-28T02:27:17.723Z,100
2023-03-28T02:30:07.400Z,100
2023-03-28T02:32:55.753Z,100
2023-03-28T02:35:45.606Z,100
2023-03-28T02:38:48.009Z,100
2023-03-28T02:41:48.485Z,100
2023-03-28T02:44:55.232Z,100
2023-03-28T02:48:00.757Z,100
2023-03-28T02:51:03.896Z,100
2023-03-28T02:54:07.102Z,100
2023-03-28T02:57:08.933Z,100
2023-03-28T03:00:01.483Z,100
2023-03-28T03:02:56.117Z,100
2023-03-28T03:05:43.739Z,100
2023-03-28T03:08:31.428Z,100
2023-03-28T03:11:19.286Z,100
2023-03-28T03:14:06.715Z,100
2023-03-28T03:16:54.318Z,100
2023-03-28T03:19:43.370Z,100
2023-03-28T03:22:31.215Z,100
2023-03-28T03:25:19.388Z,100
2023-03-28T03:28:06.953Z,100
2023-03-28T03:30:55.404Z,100
2023-03-28T03:33:42.886Z,100
2023-03-28T03:36:30.702Z,100
2023-03-28T03:39:18.277Z,100
2023-03-28T03:42:06.225Z,100
2023-03-28T03:44:53.757Z,100
2023-03-28T03:47:41.410Z,100
2023-03-28T03:50:29.066Z,100
2023-03-28T03:53:16.845Z,100
2023-03-28T03:56:05.271Z,100
2023-03-28T03:58:53.812Z,100
2023-03-28T04:01:41.304Z,100
2023-03-28T04:04:28.900Z,100
2023-03-28T04:07:17.268Z,100
2023-03-28T04:10:05.532Z,100
2023-03-28T04:12:54.055Z,100
2023-03-28T04:15:41.576Z,100
2023-03-28T04:18:30.802Z,100
2023-03-28T04:21:19.675Z,100
2023-03-28T04:24:12.087Z,100
2023-03-28T04:27:00.957Z,100
2023-03-28T04:29:50.272Z,100
2023-03-28T04:32:38.610Z,100
2023-03-28T04:35:26.238Z,100
2023-03-28T04:38:20.586Z,100
2023-03-28T04:41:10.890Z,100
2023-03-28T04:44:01.369Z,100
2023-03-28T04:46:49.030Z,100
2023-03-28T04:49:36.620Z,100
2023-03-28T04:52:24.124Z,100
2023-03-28T04:55:11.847Z,100
2023-03-28T04:58:00.959Z,100
2023-03-28T05:00:48.720Z,100
2023-03-28T05:03:36.492Z,100
2023-03-28T05:06:24.070Z,100
2023-03-28T05:09:11.496Z,100
2023-03-28T05:12:00.945Z,100
2023-03-28T05:14:48.902Z,100
2023-03-28T05:17:36.540Z,100
2023-03-28T05:20:25.568Z,100
2023-03-28T05:23:14.070Z,100
2023-03-28T05:26:02.886Z,100
2023-03-28T05:28:51.632Z,100
2023-03-28T05:31:39.397Z,100
2023-03-28T05:34:26.867Z,100
2023-03-28T05:37:14.632Z,100
2023-03-28T05:40:03.601Z,100
2023-03-28T05:42:55.631Z,100
2023-03-28T05:45:43.325Z,100
2023-03-28T05:48:32.450Z,100
2023-03-28T05:51:21.345Z,100
2023-03-28T05:54:09.084Z,100
2023-03-28T05:56:56.647Z,100
2023-03-28T05:59:44.160Z,100
2023-03-28T06:02:32.980Z,100
2023-03-28T06:05:20.719Z,100
2023-03-28T06:08:08.641Z,100
2023-03-28T06:10:56.387Z,100
2023-03-28T06:13:45.886Z,100
2023-03-28T06:16:33.967Z,100
2023-03-28T06:19:23.031Z,100
2023-03-28T06:22:11.450Z,100
2023-03-28T06:24:59.527Z,100
2023-03-28T06:27:47.265Z,100
2023-03-28T06:30:34.926Z,100
2023-03-28T06:33:24.562Z,100
2023-03-28T06:36:12.058Z,100
2023-03-28T06:39:01.009Z,100
2023-03-28T06:41:48.794Z,100
2023-03-28T06:44:36.517Z,100
2023-03-28T06:47:24.357Z,100
2023-03-28T06:50:12.105Z,100
2023-03-28T06:53:01.176Z,100
2023-03-28T06:55:48.715Z,100
2023-03-28T06:58:37.100Z,100
2023-03-28T07:01:24.917Z,100
2023-03-28T07:04:12.625Z,100
2023-03-28T07:07:01.829Z,100
2023-03-28T07:09:49.718Z,100
2023-03-28T07:12:39.184Z,100
2023-03-28T07:15:26.754Z,100
2023-03-28T07:18:14.557Z,100
2023-03-28T07:21:04.539Z,100
2023-03-28T07:23:53.277Z,100
2023-03-28T07:26:40.891Z,100
2023-03-28T07:29:28.383Z,100
2023-03-28T07:32:16.298Z,100
2023-03-28T07:37:52.432Z,100
2023-03-28T07:40:40.592Z,100
2023-03-28T07:43:28.142Z,100
2023-03-28T07:46:16.564Z,100
2023-03-28T07:49:06.134Z,100
2023-03-28T07:51:55.280Z,100
2023-03-28T07:54:43.324Z,100
2023-03-28T07:57:30.997Z,100
2023-03-28T08:00:18.791Z,100
2023-03-28T08:03:08.799Z,100
2023-03-28T08:05:57.408Z,100
2023-03-28T08:08:47.357Z,100
2023-03-28T08:11:35.134Z,100
2023-03-28T08:14:24.428Z,100
2023-03-28T08:17:11.985Z,100
2023-03-28T08:19:59.503Z,100
2023-03-28T08:22:51.181Z,100
2023-03-28T08:25:38.736Z,100
2023-03-28T08:28:27.058Z,100
2023-03-28T08:31:14.702Z,100
2023-03-28T08:34:07.917Z,100
2023-03-28T08:36:55.496Z,100
2023-03-28T08:39:43.793Z,100
2023-03-28T08:42:31.876Z,100
2023-03-28T08:45:37.659Z,100
2023-03-28T08:48:33.536Z,100
2023-03-28T08:51:26.108Z,100
2023-03-28T08:54:20.500Z,100
2023-03-28T08:57:13.593Z,100
2023-03-28T09:00:06.232Z,100
2023-03-28T09:03:02.262Z,100
2023-03-28T09:05:56.983Z,100
2023-03-28T09:08:53.918Z,100
2023-03-28T09:11:55.172Z,100
2023-03-28T09:14:52.773Z,100
2023-03-28T09:18:00.771Z,100
2023-03-28T09:21:10.125Z,100
2023-03-28T09:24:07.895Z,100
2023-03-28T09:27:06.808Z,100
2023-03-28T09:30:04.936Z,100
2023-03-28T09:33:04.480Z,100
2023-03-28T09:35:59.776Z,100
2023-03-28T09:38:49.314Z,100
2023-03-28T09:41:40.022Z,100
2023-03-28T09:44:50.945Z,100
2023-03-28T09:47:49.608Z,100
2023-03-28T09:50:37.881Z,100
2023-03-28T09:53:25.477Z,99.4
2023-03-28T09:56:16.251Z,96.9
2023-03-28T09:59:11.155Z,95
2023-03-28T10:02:09.225Z,97.5
2023-03-28T10:05:12.462Z,99
2023-03-28T10:08:17.786Z,100
2023-03-28T10:11:10.242Z,100
2023-03-28T10:14:00.369Z,100
2023-03-28T10:16:50.735Z,100
2023-03-28T10:19:38.594Z,100
2023-03-28T10:22:29.989Z,100
2023-03-28T10:25:21.097Z,100
2023-03-28T10:28:20.996Z,100
2023-03-28T10:31:16.807Z,100
2023-03-28T10:34:14.089Z,100
2023-03-28T10:37:11.000Z,98.2
2023-03-28T10:40:17.477Z,100
2023-03-28T10:43:12.481Z,100
2023-03-28T10:46:01.463Z,100
2023-03-28T10:48:56.563Z,98.5
2023-03-28T10:51:52.321Z,86.8
2023-03-28T10:54:40.342Z,84.8
2023-03-28T10:57:40.412Z,85.8
2023-03-28T11:00:39.789Z,84.5
2023-03-28T11:03:33.156Z,89.4
2023-03-28T11:06:32.516Z,93.4
2023-03-28T11:09:29.279Z,91.3
2023-03-28T11:12:28.648Z,89.8
2023-03-28T11:15:30.991Z,95.9
2023-03-28T11:18:26.983Z,96.6
2023-03-28T11:21:33.918Z,100
2023-03-28T11:24:36.999Z,98.9
2023-03-28T11:27:32.304Z,99
2023-03-28T11:30:26.927Z,99.4
2023-03-28T11:33:18.530Z,96.7
2023-03-28T11:36:15.334Z,95.6
2023-03-28T11:39:10.247Z,88.5
2023-03-28T11:42:04.839Z,89.8
2023-03-28T11:44:59.280Z,85.2
2023-03-28T11:47:50.111Z,86
2023-03-28T11:50:50.045Z,83.3
2023-03-28T11:53:47.798Z,79.5
2023-03-28T11:56:40.974Z,81.1
2023-03-28T11:59:35.897Z,80.7
2023-03-28T12:02:31.195Z,81.2
2023-03-28T12:05:26.768Z,79.7
2023-03-28T12:08:19.817Z,77.5
2023-03-28T12:11:18.295Z,75.9
2023-03-28T12:14:13.134Z,75
2023-03-28T12:17:28.244Z,74.8
2023-03-28T12:20:22.528Z,73.3
2023-03-28T12:23:17.754Z,71.3
2023-03-28T12:26:17.010Z,69.8
2023-03-28T12:29:10.960Z,67.6
2023-03-28T12:32:05.146Z,69.3
2023-03-28T12:35:09.778Z,65.4
2023-03-28T12:38:04.248Z,65.3
2023-03-28T12:41:02.632Z,61.6
2023-03-28T12:43:53.122Z,62.4
2023-03-28T12:46:43.818Z,60.4
2023-03-28T12:49:36.052Z,62.3
2023-03-28T12:52:29.633Z,60
2023-03-28T12:55:20.093Z,58.4
2023-03-28T12:58:30.557Z,55.2
2023-03-28T13:01:21.355Z,57
2023-03-28T13:04:19.830Z,56.6
2023-03-28T13:07:14.745Z,59.5
2023-03-28T13:10:12.935Z,61.3
2023-03-28T13:13:09.743Z,56.4
2023-03-28T13:16:08.937Z,59.1
2023-03-28T13:19:01.597Z,57.6
2023-03-28T13:21:52.054Z,55.6
2023-03-28T13:24:42.556Z,55.2
2023-03-28T13:27:30.275Z,54.8
2023-03-28T13:30:19.727Z,55.9
2023-03-28T13:33:11.076Z,49.2
2023-03-28T13:36:06.787Z,47.4
2023-03-28T13:39:08.750Z,45.7
2023-03-28T13:42:08.160Z,47.4
2023-03-28T13:45:12.948Z,49.8
2023-03-28T13:48:13.532Z,46.9
2023-03-28T13:51:02.799Z,49.3
2023-03-28T13:53:55.979Z,46.6
2023-03-28T13:56:43.705Z,46.2
2023-03-28T13:59:32.917Z,44.7
2023-03-28T14:02:22.879Z,44.3
2023-03-28T14:05:23.796Z,44.7
2023-03-28T14:08:13.036Z,42.1
2023-03-28T14:11:10.011Z,42.1
2023-03-28T14:14:01.354Z,39.6
2023-03-28T14:16:53.214Z,38.9
2023-03-28T14:19:42.196Z,38.8
2023-03-28T14:22:33.026Z,39.3
2023-03-28T14:25:24.575Z,40
2023-03-28T14:28:12.734Z,39.2
2023-03-28T14:31:01.352Z,37.3
2023-03-28T14:33:49.300Z,39.9
2023-03-28T14:36:37.452Z,40.7
2023-03-28T14:39:43.460Z,39.4
2023-03-28T14:42:31.903Z,39.6
2023-03-28T14:45:20.300Z,41.7
2023-03-28T14:48:11.465Z,39.4
2023-03-28T14:51:04.307Z,36.5
2023-03-28T14:53:52.810Z,37.2
2023-03-28T14:56:41.670Z,38.6
2023-03-28T14:59:30.175Z,37.7
2023-03-28T15:02:22.281Z,38.9
2023-03-28T15:05:14.252Z,38.3
2023-03-28T15:08:06.857Z,38.9
2023-03-28T15:11:09.242Z,40.1
2023-03-28T15:14:02.004Z,40.3
2023-03-28T15:16:56.929Z,39.6
2023-03-28T15:19:45.508Z,38.8
2023-03-28T15:22:39.972Z,39.3
2023-03-28T15:25:32.259Z,38.7
2023-03-28T15:28:21.713Z,39.2
2023-03-28T15:31:13.186Z,40.2
2023-03-28T15:34:02.488Z,40.2
2023-03-28T15:36:55.271Z,40
2023-03-28T15:39:46.505Z,38.9
2023-03-28T15:42:35.481Z,39.1
2023-03-28T15:45:23.570Z,41
2023-03-28T15:48:23.551Z,40.5
2023-03-28T15:51:11.793Z,41
2023-03-28T15:54:01.865Z,40.7
2023-03-28T15:56:50.907Z,43.3
2023-03-28T15:59:39.934Z,45.3
2023-03-28T16:02:33.086Z,45.1
2023-03-28T16:05:22.278Z,45.1
2023-03-28T16:08:17.850Z,43.8
2023-03-28T16:11:09.600Z,42.4
2023-03-28T16:14:03.587Z,40.6
2023-03-28T16:16:51.211Z,40.1
2023-03-28T16:19:40.216Z,40.9
2023-03-28T16:22:29.923Z,42.4
2023-03-28T16:25:17.899Z,43.8
2023-03-28T16:28:06.513Z,43.3
2023-03-28T16:33:44.515Z,41.3
2023-03-28T16:36:32.268Z,42.7
2023-03-28T16:39:20.197Z,41.8
2023-03-28T16:42:09.209Z,42.6
2023-03-28T16:44:56.786Z,44.7
2023-03-28T16:47:44.609Z,43.1
2023-03-28T16:50:32.788Z,44.6
2023-03-28T16:53:20.666Z,44.4
2023-03-28T16:56:09.425Z,45
2023-03-28T16:58:59.695Z,47.4
2023-03-28T17:01:48.669Z,47.5
2023-03-28T17:04:36.622Z,46.6
2023-03-28T17:07:24.218Z,47.7
2023-03-28T17:10:12.387Z,48.7
2023-03-28T17:12:59.991Z,49.5
2023-03-28T17:15:47.537Z,49.8
2023-03-28T17:18:35.233Z,51
2023-03-28T17:21:22.895Z,52
2023-03-28T17:24:10.631Z,53.4
2023-03-28T17:26:59.180Z,53.5
2023-03-28T17:29:46.796Z,53.3
2023-03-28T17:32:34.491Z,53.6
2023-03-28T17:35:22.909Z,54.4
2023-03-28T17:38:10.671Z,55
2023-03-28T17:40:58.843Z,56.4
2023-03-28T17:43:46.910Z,56.9
2023-03-28T17:46:35.426Z,58
2023-03-28T17:49:23.781Z,57.9
2023-03-28T17:52:11.752Z,59.8
2023-03-28T17:54:59.283Z,60
2023-03-28T17:57:47.683Z,60.7
2023-03-28T18:00:35.205Z,59.8
2023-03-28T18:03:22.859Z,61.6
2023-03-28T18:06:11.352Z,61.9
2023-03-28T18:08:59.802Z,62.9
2023-03-28T18:11:47.344Z,64.6
2023-03-28T18:14:35.263Z,63
2023-03-28T18:17:22.980Z,63.8
2023-03-28T18:20:10.697Z,66.7
2023-03-28T18:22:58.719Z,67.3
2023-03-28T18:25:46.328Z,68.8
2023-03-28T18:28:36.054Z,67.4
2023-03-28T18:31:25.803Z,64.3
2023-03-28T18:34:14.977Z,65.8
2023-03-28T18:37:03.378Z,67.8
2023-03-28T18:39:51.155Z,67.3
2023-03-28T18:42:38.832Z,69.7
2023-03-28T18:45:26.523Z,71.2
2023-03-28T18:48:14.335Z,71.2
2023-03-28T18:51:03.167Z,70.4
2023-03-28T18:53:51.087Z,74.6
2023-03-28T18:56:38.814Z,71.8
2023-03-28T18:59:26.724Z,74.1
2023-03-28T19:02:14.682Z,74.1
2023-03-28T19:05:02.966Z,77.9
2023-03-28T19:07:51.675Z,78.9
2023-03-28T19:10:41.654Z,78.4
2023-03-28T19:13:31.683Z,81.1
2023-03-28T19:16:19.739Z,81.2
2023-03-28T19:19:08.334Z,82.5
2023-03-28T19:21:56.393Z,81.1
2023-03-28T19:24:46.321Z,80.7
2023-03-28T19:27:34.145Z,80.9
2023-03-28T19:30:23.092Z,81.7
2023-03-28T19:33:22.681Z,81.9
2023-03-28T19:36:10.959Z,82.7
2023-03-28T19:38:58.814Z,82.5
2023-03-28T19:41:46.948Z,83.6
2023-03-28T19:44:34.522Z,83.7
2023-03-28T19:47:22.924Z,82.4
2023-03-28T19:50:11.098Z,81.2
2023-03-28T19:52:58.687Z,79.1
2023-03-28T19:55:46.329Z,83.4
2023-03-28T19:58:38.222Z,83.1
2023-03-28T20:01:26.556Z,83.2
2023-03-28T20:04:14.150Z,80.3
2023-03-28T20:07:02.412Z,81.3
2023-03-28T20:09:50.015Z,81.5
2023-03-28T20:12:37.706Z,80
2023-03-28T20:15:25.642Z,79.8
2023-03-28T20:18:13.514Z,82.5
2023-03-28T20:21:04.431Z,86
2023-03-28T20:23:55.222Z,85.1
2023-03-28T20:26:43.811Z,86.1
2023-03-28T20:29:31.886Z,84.8
2023-03-28T20:32:20.621Z,85.2
2023-03-28T20:35:08.833Z,86.5
2023-03-28T20:37:56.448Z,87.1
2023-03-28T20:40:44.676Z,87.6
2023-03-28T20:43:32.333Z,87.7
2023-03-28T20:46:21.688Z,86.4
2023-03-28T20:49:09.679Z,88.5
2023-03-28T20:51:57.479Z,86.7
2023-03-28T20:54:46.354Z,90
2023-03-28T20:57:34.692Z,90.7
2023-03-28T21:00:26.122Z,88.1
2023-03-28T21:03:18.492Z,89.4
2023-03-28T21:06:07.146Z,89
2023-03-28T21:08:54.744Z,87.8
2023-03-28T21:11:45.074Z,87.8
2023-03-28T21:14:34.265Z,86.2
2023-03-28T21:17:22.147Z,86.7
2023-03-28T21:20:10.729Z,89
2023-03-28T21:22:58.383Z,85.7
2023-03-28T21:25:46.126Z,87.4
2023-03-28T21:28:37.264Z,86.2
2023-03-28T21:31:26.062Z,86.7
2023-03-28T21:34:14.572Z,88
2023-03-28T21:37:02.444Z,90.5
2023-03-28T21:39:50.667Z,89.3
2023-03-28T21:42:38.335Z,90.9
2023-03-28T21:45:26.414Z,87.2
2023-03-28T21:48:14.234Z,89.2
2023-03-28T21:51:03.875Z,90.7
2023-03-28T21:53:52.449Z,90.8
2023-03-28T21:56:40.188Z,90.7
2023-03-28T21:59:27.734Z,91.8
2023-03-28T22:02:15.297Z,92
2023-03-28T22:05:03.851Z,93
2023-03-28T22:07:51.883Z,89.3
2023-03-28T22:10:39.375Z,92.2
2023-03-28T22:13:31.222Z,92.4
2023-03-28T22:16:19.140Z,92
2023-03-28T22:19:10.589Z,91.7
2023-03-28T22:21:59.158Z,91.1
2023-03-28T22:24:46.733Z,90.5
2023-03-28T22:27:34.204Z,92.2
2023-03-28T22:30:23.264Z,92
2023-03-28T22:33:10.936Z,92.9
2023-03-28T22:35:58.907Z,93.3
2023-03-28T22:38:46.516Z,92.8
2023-03-28T22:41:34.149Z,93.4
2023-03-28T22:44:21.945Z,91.8
2023-03-28T22:47:11.395Z,90.8
2023-03-28T22:49:58.828Z,91.7
2023-03-28T22:52:46.341Z,93.8
2023-03-28T22:55:34.943Z,92.1
2023-03-28T22:58:23.356Z,90.2
2023-03-28T23:01:10.833Z,89.1
2023-03-28T23:03:58.876Z,91.4
2023-03-28T23:06:47.382Z,89.8
2023-03-28T23:09:34.985Z,87.9
2023-03-28T23:12:22.796Z,88.7
2023-03-28T23:15:10.434Z,90.2
2023-03-28T23:17:59.557Z,91.5
2023-03-28T23:20:47.270Z,92.5
2023-03-28T23:23:35.775Z,92.9
2023-03-28T23:26:23.678Z,92.8
2023-03-28T23:29:11.647Z,93.5
2023-03-28T23:31:59.159Z,93.1
2023-03-28T23:34:46.832Z,94
2023-03-28T23:37:34.582Z,92.9
2023-03-28T23:40:22.714Z,90.4
2023-03-28T23:43:10.297Z,88.9
2023-03-28T23:45:58.083Z,91.1
2023-03-28T23:48:48.720Z,91.5
2023-03-28T23:51:36.292Z,92.5
2023-03-28T23:54:23.815Z,92.2
2023-03-28T23:57:14.551Z,93.6
